Eviapetrol II — SY6858 — position and weather

sailwx.info

Track history (hours):
 
Tides and Currents Weather Stations Pressure Air Temp Water Temp Dewpoint Dewpoint Depression Visibility Wind Speed Wind Dir Waves Ship Positions

Eviapetrol II

Last reported at 2014-Nov-25 05:20 UTC. Time now 2014-Nov-26 15:07 UTC.
Position N 37°48' E 026°28'.

Length 78 m; draft 4.7 m.

Type: Tanker. MMSI: 240493000.

Date/timePositionNaut miles runAvg speedWind from/ knotsBaromVisibWave heightAir tempDewpointWater temp
2014-Nov-25 05:20N 37°48' E 026°28'10 8.3
2014-Nov-25 04:10N 37°40' E 026°34'16 8.9
2014-Nov-25 02:23N 37°26' E 026°45'42 1.0
2014-Nov-23 10:28N 36°46' E 026°34'17 7.9
2014-Nov-23 08:18N 36°52' E 026°14'6 6.6
2014-Nov-23 07:27N 36°50' E 026°08'8 8.6
2014-Nov-23 06:33N 36°48' E 025°58'9 9.1
2014-Nov-23 05:33N 36°45' E 025°48'9 8.8
2014-Nov-23 04:33N 36°46' E 025°37'9 9.2
2014-Nov-23 03:33N 36°48' E 025°26'9 9.4
2014-Nov-23 02:33N 36°51' E 025°15'9 9.3
2014-Nov-23 01:33N 36°54' E 025°04'9 9.3
2014-Nov-23 00:33N 36°57' E 024°53'9 9.4
2014-Nov-22 23:33N 37°02' E 024°43'9 9.4
2014-Nov-22 22:33N 37°05' E 024°32'19 9.1
2014-Nov-22 20:30N 37°18' E 024°15'29 9.4
2014-Nov-22 17:25N 37°38' E 023°48'8 9.0
2014-Nov-22 16:33N 37°43' E 023°40'10 9.5
2014-Nov-22 15:33N 37°52' E 023°36'9 8.5
2014-Nov-22 14:33N 37°60' E 023°33'2 0.7
2014-Nov-22 11:09N 38°02' E 023°32'0 0.0
2014-Nov-22 10:30N 38°02' E 023°32'0 0.0
2014-Nov-22 09:30N 38°02' E 023°32'0 0.0
2014-Nov-22 08:27N 38°02' E 023°32'0 0.0
2014-Nov-22 05:30N 38°02' E 023°32'0 0.0
2014-Nov-22 04:09N 38°02' E 023°32'0 0.0
2014-Nov-22 01:24N 38°02' E 023°32'0 0.0
2014-Nov-22 00:09N 38°02' E 023°32'1 0.9
2014-Nov-21 22:33N 38°02' E 023°34'1 1.3
2014-Nov-21 21:32N 38°02' E 023°36'0 0.0
2014-Nov-21 20:32N 38°02' E 023°36'0 0.0
2014-Nov-21 19:29N 38°02' E 023°36'0 0.0
2014-Nov-21 18:32N 38°02' E 023°36'0 0.0
2014-Nov-21 17:32N 38°02' E 023°36'0 0.0
2014-Nov-21 16:29N 38°02' E 023°36'0 0.0
2014-Nov-21 15:29N 38°02' E 023°36'1 0.8
2014-Nov-21 14:32N 38°02' E 023°35'2 2.0
2014-Nov-21 13:29N 38°02' E 023°32'0 0.0
2014-Nov-21 12:11N 38°02' E 023°32'0 0.0
2014-Nov-21 11:31N 38°02' E 023°32'0 0.0
2014-Nov-21 10:31N 38°02' E 023°32'0 0.0
2014-Nov-21 09:29N 38°02' E 023°32'0 0.3
2014-Nov-21 08:33N 38°01' E 023°32'7 7.0
2014-Nov-21 07:33N 37°55' E 023°36'9 9.0
2014-Nov-21 06:33N 37°47' E 023°42'9 9.0
2014-Nov-21 05:33N 37°39' E 023°46'116 4.3
2014-Nov-20 02:33N 35°47' E 024°23'9 8.9
2014-Nov-20 01:33N 35°55' E 024°28'19 8.8
2014-Nov-19 23:21N 36°14' E 024°36'7 8.4
2014-Nov-19 22:33N 36°20' E 024°38'9 8.5
2014-Nov-19 21:33N 36°28' E 024°41'8 8.5
2014-Nov-19 20:33N 36°36' E 024°42'9 8.6
2014-Nov-19 19:33N 36°45' E 024°42'9 9.3
2014-Nov-19 18:33N 36°53' E 024°36'9 9.0
2014-Nov-19 17:33N 36°60' E 024°28'8 8.4
2014-Nov-19 16:33N 37°06' E 024°21'11 8.1
2014-Nov-19 15:13N 37°15' E 024°13'6 7.6
2014-Nov-19 14:26N 37°20' E 024°09'8 7.8
2014-Nov-19 13:21N 37°26' E 024°02'17 8.3
2014-Nov-19 11:17N 37°38' E 023°46'6 8.5
2014-Nov-19 10:33N 37°42' E 023°41'9 9.1
2014-Nov-19 09:33N 37°51' E 023°37'7 7.4
2014-Nov-19 08:34N 37°58' E 023°33'4 0.7
2014-Nov-19 02:32N 38°02' E 023°32'0 0.0
2014-Nov-19 01:32N 38°02' E 023°32'0 0.0
2014-Nov-18 23:05N 38°02' E 023°32'2 4.2
2014-Nov-18 22:34N 38°02' E 023°35'0 0.4
2014-Nov-18 21:31N 38°02' E 023°36'0 0.0
2014-Nov-18 20:31N 38°02' E 023°36'0 0.0
2014-Nov-18 19:19N 38°02' E 023°36'0 0.0
2014-Nov-18 18:31N 38°02' E 023°36'0 0.0
2014-Nov-18 17:31N 38°02' E 023°36'0 0.0
2014-Nov-18 16:31N 38°02' E 023°36'0 0.0
2014-Nov-18 15:33N 38°02' E 023°36'4 4.3
2014-Nov-18 14:33N 37°58' E 023°33'5 4.8
2014-Nov-18 13:33N 37°55' E 023°37'10 9.7
2014-Nov-18 12:33N 37°46' E 023°42'22 9.1
2014-Nov-18 10:11N 37°38' E 024°08'7 9.9
2014-Nov-18 09:32N 37°42' E 024°14'1010.1
2014-Nov-18 08:30N 37°49' E 024°24'1110.3
2014-Nov-18 07:27N 37°56' E 024°34'11 9.9
2014-Nov-18 06:19N 38°03' E 024°46'810.1
2014-Nov-18 05:33N 38°07' E 024°54'10 9.8
2014-Nov-18 04:32N 38°13' E 025°04'71 2.4
2014-Nov-16 23:25N 37°48' E 026°29'1011.0
2014-Nov-16 22:33N 37°40' E 026°34'1410.4
2014-Nov-16 21:14N 37°28' E 026°43'810.2
2014-Nov-16 20:25N 37°21' E 026°49'27 0.9
2014-Nov-15 14:15N 37°04' E 026°23'710.4
2014-Nov-15 13:33N 37°05' E 026°14'1010.3
2014-Nov-15 12:33N 37°08' E 026°01'1010.0
2014-Nov-15 11:33N 37°10' E 025°49'10 9.7
2014-Nov-15 10:30N 37°12' E 025°37'9 9.5
2014-Nov-15 09:33N 37°15' E 025°26'9 9.3
2014-Nov-15 08:33N 37°16' E 025°14'10 9.5
2014-Nov-15 07:33N 37°19' E 025°03'1010.2
2014-Nov-15 06:33N 37°21' E 024°50'1010.0
2014-Nov-15 05:33N 37°25' E 024°39'  
Track history (hours):
 
Tides and Currents Weather Stations Pressure Air Temp Water Temp Dewpoint Dewpoint Depression Visibility Wind Speed Wind Dir Waves Ship Positions

Eviapetrol II

Last reported at 2014-Nov-25 05:20 UTC. Time now 2014-Nov-26 15:07 UTC.
Position N 37°48' E 026°28'.

Length 78 m; draft 4.7 m.

Type: Tanker. MMSI: 240493000.

Date/timePositionNaut miles runAvg speedWind from/ knotsBaromVisibWave heightAir tempDewpointWater temp
2014-Nov-25 05:20N 37°48' E 026°28'10 8.3
2014-Nov-25 04:10N 37°40' E 026°34'16 8.9
2014-Nov-25 02:23N 37°26' E 026°45'42 1.0
2014-Nov-23 10:28N 36°46' E 026°34'17 7.9
2014-Nov-23 08:18N 36°52' E 026°14'6 6.6
2014-Nov-23 07:27N 36°50' E 026°08'8 8.6
2014-Nov-23 06:33N 36°48' E 025°58'9 9.1
2014-Nov-23 05:33N 36°45' E 025°48'9 8.8
2014-Nov-23 04:33N 36°46' E 025°37'9 9.2
2014-Nov-23 03:33N 36°48' E 025°26'9 9.4
2014-Nov-23 02:33N 36°51' E 025°15'9 9.3
2014-Nov-23 01:33N 36°54' E 025°04'9 9.3
2014-Nov-23 00:33N 36°57' E 024°53'9 9.4
2014-Nov-22 23:33N 37°02' E 024°43'9 9.4
2014-Nov-22 22:33N 37°05' E 024°32'19 9.1
2014-Nov-22 20:30N 37°18' E 024°15'29 9.4
2014-Nov-22 17:25N 37°38' E 023°48'8 9.0
2014-Nov-22 16:33N 37°43' E 023°40'10 9.5
2014-Nov-22 15:33N 37°52' E 023°36'9 8.5
2014-Nov-22 14:33N 37°60' E 023°33'2 0.7
2014-Nov-22 11:09N 38°02' E 023°32'0 0.0
2014-Nov-22 10:30N 38°02' E 023°32'0 0.0
2014-Nov-22 09:30N 38°02' E 023°32'0 0.0
2014-Nov-22 08:27N 38°02' E 023°32'0 0.0
2014-Nov-22 05:30N 38°02' E 023°32'0 0.0
2014-Nov-22 04:09N 38°02' E 023°32'0 0.0
2014-Nov-22 01:24N 38°02' E 023°32'0 0.0
2014-Nov-22 00:09N 38°02' E 023°32'1 0.9
2014-Nov-21 22:33N 38°02' E 023°34'1 1.3
2014-Nov-21 21:32N 38°02' E 023°36'0 0.0
2014-Nov-21 20:32N 38°02' E 023°36'0 0.0
2014-Nov-21 19:29N 38°02' E 023°36'0 0.0
2014-Nov-21 18:32N 38°02' E 023°36'0 0.0
2014-Nov-21 17:32N 38°02' E 023°36'0 0.0
2014-Nov-21 16:29N 38°02' E 023°36'0 0.0
2014-Nov-21 15:29N 38°02' E 023°36'1 0.8
2014-Nov-21 14:32N 38°02' E 023°35'2 2.0
2014-Nov-21 13:29N 38°02' E 023°32'0 0.0
2014-Nov-21 12:11N 38°02' E 023°32'0 0.0
2014-Nov-21 11:31N 38°02' E 023°32'0 0.0
2014-Nov-21 10:31N 38°02' E 023°32'0 0.0
2014-Nov-21 09:29N 38°02' E 023°32'0 0.3
2014-Nov-21 08:33N 38°01' E 023°32'7 7.0
2014-Nov-21 07:33N 37°55' E 023°36'9 9.0
2014-Nov-21 06:33N 37°47' E 023°42'9 9.0
2014-Nov-21 05:33N 37°39' E 023°46'116 4.3
2014-Nov-20 02:33N 35°47' E 024°23'9 8.9
2014-Nov-20 01:33N 35°55' E 024°28'19 8.8
2014-Nov-19 23:21N 36°14' E 024°36'7 8.4
2014-Nov-19 22:33N 36°20' E 024°38'9 8.5
2014-Nov-19 21:33N 36°28' E 024°41'8 8.5
2014-Nov-19 20:33N 36°36' E 024°42'9 8.6
2014-Nov-19 19:33N 36°45' E 024°42'9 9.3
2014-Nov-19 18:33N 36°53' E 024°36'9 9.0
2014-Nov-19 17:33N 36°60' E 024°28'8 8.4
2014-Nov-19 16:33N 37°06' E 024°21'11 8.1
2014-Nov-19 15:13N 37°15' E 024°13'6 7.6
2014-Nov-19 14:26N 37°20' E 024°09'8 7.8
2014-Nov-19 13:21N 37°26' E 024°02'17 8.3
2014-Nov-19 11:17N 37°38' E 023°46'6 8.5
2014-Nov-19 10:33N 37°42' E 023°41'9 9.1
2014-Nov-19 09:33N 37°51' E 023°37'7 7.4
2014-Nov-19 08:34N 37°58' E 023°33'4 0.7
2014-Nov-19 02:32N 38°02' E 023°32'0 0.0
2014-Nov-19 01:32N 38°02' E 023°32'0 0.0
2014-Nov-18 23:05N 38°02' E 023°32'2 4.2
2014-Nov-18 22:34N 38°02' E 023°35'0 0.4
2014-Nov-18 21:31N 38°02' E 023°36'0 0.0
2014-Nov-18 20:31N 38°02' E 023°36'0 0.0
2014-Nov-18 19:19N 38°02' E 023°36'0 0.0
2014-Nov-18 18:31N 38°02' E 023°36'0 0.0
2014-Nov-18 17:31N 38°02' E 023°36'0 0.0
2014-Nov-18 16:31N 38°02' E 023°36'0 0.0
2014-Nov-18 15:33N 38°02' E 023°36'4 4.3
2014-Nov-18 14:33N 37°58' E 023°33'5 4.8
2014-Nov-18 13:33N 37°55' E 023°37'10 9.7
2014-Nov-18 12:33N 37°46' E 023°42'22 9.1
2014-Nov-18 10:11N 37°38' E 024°08'7 9.9
2014-Nov-18 09:32N 37°42' E 024°14'1010.1
2014-Nov-18 08:30N 37°49' E 024°24'1110.3
2014-Nov-18 07:27N 37°56' E 024°34'11 9.9
2014-Nov-18 06:19N 38°03' E 024°46'810.1
2014-Nov-18 05:33N 38°07' E 024°54'10 9.8
2014-Nov-18 04:32N 38°13' E 025°04'71 2.4
2014-Nov-16 23:25N 37°48' E 026°29'1011.0
2014-Nov-16 22:33N 37°40' E 026°34'1410.4
2014-Nov-16 21:14N 37°28' E 026°43'810.2
2014-Nov-16 20:25N 37°21' E 026°49'27 0.9
2014-Nov-15 14:15N 37°04' E 026°23'710.4
2014-Nov-15 13:33N 37°05' E 026°14'1010.3
2014-Nov-15 12:33N 37°08' E 026°01'1010.0
2014-Nov-15 11:33N 37°10' E 025°49'10 9.7
2014-Nov-15 10:30N 37°12' E 025°37'9 9.5
2014-Nov-15 09:33N 37°15' E 025°26'9 9.3
2014-Nov-15 08:33N 37°16' E 025°14'10 9.5
2014-Nov-15 07:33N 37°19' E 025°03'1010.2
2014-Nov-15 06:33N 37°21' E 024°50'1010.0
2014-Nov-15 05:33N 37°25' E 024°39'  

Dump ship's entire track history